Archival Weather

Snohomish County (Paine Fld)

Everett, Washington (KPAE)

Report from: Sunday, November 5, 2023 2:53 AM PST
Current time: Monday, June 24, 2024 2:36 AM PDT

Current weather – Weather history – Daily summaries
Weather forecast

Temperature11.1°C (52.0°F)
Dew point8.9°C (48.0°F)
Winds 12 kts (6.2 m/s, 13.8 mph) South (170°)
Wind gusts 26 kts (13.4 m/s, 29.9 mph)
Peak wind 26 kts (13.4 m/s, 29.9 mph) South-Southeast (160°) at 10:47
Visibility10 mi. (16.1 km)
Clouds Sky clear
Altimeter29.84 in.Hg (1010 mB)
Relative humidity86 %
Density altitude-206 ft. (-63 m)
Sea-level pressure101.0 kPa (1010 mB, 29.84 in.Hg)
Remarks Fully automated report
Automated weather observing station with precipitation discriminator
Flight conditions Visual Meteorological Conditions
Raw dataKPAE 051053Z AUTO 17012G26KT 10SM CLR 11/09 A2984 RMK AO2 PK WND 16026/1047 SLP104 T01110089
An error has occurred. This application may no longer respond until reloaded. Reload 🗙